sensor_id;sensor_type;location;lat;lon;timestamp;P1;durP1;ratioP1;P2;durP2;ratioP2
20970;SDS011;10644;48.834;10.088;2023-04-15T00:00:42;5.80;;;4.60;;
20970;SDS011;10644;48.834;10.088;2023-04-15T00:03:07;9.83;;;5.27;;
20970;SDS011;10644;48.834;10.088;2023-04-15T00:05:33;9.83;;;5.13;;
20970;SDS011;10644;48.834;10.088;2023-04-15T00:07:59;17.13;;;6.50;;
20970;SDS011;10644;48.834;10.088;2023-04-15T00:10:25;10.25;;;5.25;;
20970;SDS011;10644;48.834;10.088;2023-04-15T00:12:53;8.35;;;6.13;;
20970;SDS011;10644;48.834;10.088;2023-04-15T00:15:18;11.00;;;6.20;;
20970;SDS011;10644;48.834;10.088;2023-04-15T00:17:49;10.65;;;6.88;;
20970;SDS011;10644;48.834;10.088;2023-04-15T00:20:16;11.65;;;6.90;;
20970;SDS011;10644;48.834;10.088;2023-04-15T00:22:41;9.10;;;6.57;;
20970;SDS011;10644;48.834;10.088;2023-04-15T00:25:07;15.00;;;7.30;;
20970;SDS011;10644;48.834;10.088;2023-04-15T00:27:33;19.92;;;7.30;;
20970;SDS011;10644;48.834;10.088;2023-04-15T00:29:59;11.73;;;6.90;;
20970;SDS011;10644;48.834;10.088;2023-04-15T00:32:24;11.33;;;6.97;;
20970;SDS011;10644;48.834;10.088;2023-04-15T00:34:49;13.47;;;6.73;;
20970;SDS011;10644;48.834;10.088;2023-04-15T00:37:15;8.67;;;6.17;;
20970;SDS011;10644;48.834;10.088;2023-04-15T00:39:41;6.20;;;4.50;;
20970;SDS011;10644;48.834;10.088;2023-04-15T00:42:06;19.80;;;5.80;;
20970;SDS011;10644;48.834;10.088;2023-04-15T00:44:31;6.00;;;4.83;;
20970;SDS011;10644;48.834;10.088;2023-04-15T00:46:57;8.73;;;5.37;;
20970;SDS011;10644;48.834;10.088;2023-04-15T00:49:24;9.95;;;4.60;;
20970;SDS011;10644;48.834;10.088;2023-04-15T00:51:51;8.00;;;4.40;;
20970;SDS011;10644;48.834;10.088;2023-04-15T00:54:16;10.40;;;4.57;;
20970;SDS011;10644;48.834;10.088;2023-04-15T00:56:42;8.30;;;5.37;;
20970;SDS011;10644;48.834;10.088;2023-04-15T00:59:07;11.70;;;6.90;;
20970;SDS011;10644;48.834;10.088;2023-04-15T01:01:34;11.85;;;6.95;;
20970;SDS011;10644;48.834;10.088;2023-04-15T01:04:00;10.77;;;6.50;;
20970;SDS011;10644;48.834;10.088;2023-04-15T01:06:27;11.57;;;6.78;;
20970;SDS011;10644;48.834;10.088;2023-04-15T01:08:53;9.77;;;7.13;;
20970;SDS011;10644;48.834;10.088;2023-04-15T01:11:19;9.63;;;6.65;;
20970;SDS011;10644;48.834;10.088;2023-04-15T01:13:46;11.65;;;7.30;;
20970;SDS011;10644;48.834;10.088;2023-04-15T01:16:12;9.93;;;6.55;;
20970;SDS011;10644;48.834;10.088;2023-04-15T01:18:38;11.75;;;6.50;;
20970;SDS011;10644;48.834;10.088;2023-04-15T01:21:06;10.07;;;6.30;;
20970;SDS011;10644;48.834;10.088;2023-04-15T01:23:34;13.80;;;7.28;;
20970;SDS011;10644;48.834;10.088;2023-04-15T01:26:01;11.38;;;6.75;;
20970;SDS011;10644;48.834;10.088;2023-04-15T01:28:27;13.20;;;5.90;;
20970;SDS011;10644;48.834;10.088;2023-04-15T01:33:47;11.57;;;5.50;;
20970;SDS011;10644;48.834;10.088;2023-04-15T01:36:13;5.03;;;3.90;;
20970;SDS011;10644;48.834;10.088;2023-04-15T01:38:40;8.77;;;4.30;;
20970;SDS011;10644;48.834;10.088;2023-04-15T01:41:06;9.47;;;4.50;;
20970;SDS011;10644;48.834;10.088;2023-04-15T01:43:32;8.70;;;4.10;;
20970;SDS011;10644;48.834;10.088;2023-04-15T01:45:58;5.80;;;3.65;;
20970;SDS011;10644;48.834;10.088;2023-04-15T01:48:23;11.03;;;5.10;;
20970;SDS011;10644;48.834;10.088;2023-04-15T01:50:49;11.10;;;5.23;;
20970;SDS011;10644;48.834;10.088;2023-04-15T01:53:14;6.50;;;4.70;;
20970;SDS011;10644;48.834;10.088;2023-04-15T01:55:40;7.77;;;4.90;;
20970;SDS011;10644;48.834;10.088;2023-04-15T01:58:06;5.73;;;3.83;;
20970;SDS011;10644;48.834;10.088;2023-04-15T02:00:32;6.53;;;3.67;;
20970;SDS011;10644;48.834;10.088;2023-04-15T02:02:57;11.57;;;5.80;;
20970;SDS011;10644;48.834;10.088;2023-04-15T02:05:25;8.03;;;3.63;;
20970;SDS011;10644;48.834;10.088;2023-04-15T02:07:51;6.32;;;3.92;;
20970;SDS011;10644;48.834;10.088;2023-04-15T02:10:17;7.57;;;4.43;;
20970;SDS011;10644;48.834;10.088;2023-04-15T02:12:43;11.20;;;5.87;;
20970;SDS011;10644;48.834;10.088;2023-04-15T02:15:08;9.60;;;6.47;;
20970;SDS011;10644;48.834;10.088;2023-04-15T02:17:36;8.52;;;5.85;;
20970;SDS011;10644;48.834;10.088;2023-04-15T02:20:02;9.53;;;5.70;;
20970;SDS011;10644;48.834;10.088;2023-04-15T02:22:30;6.20;;;5.50;;
20970;SDS011;10644;48.834;10.088;2023-04-15T02:24:56;6.27;;;5.00;;
20970;SDS011;10644;48.834;10.088;2023-04-15T02:27:23;9.48;;;4.50;;
20970;SDS011;10644;48.834;10.088;2023-04-15T02:29:49;10.83;;;4.37;;
20970;SDS011;10644;48.834;10.088;2023-04-15T02:32:17;5.07;;;3.95;;
20970;SDS011;10644;48.834;10.088;2023-04-15T02:34:42;11.83;;;4.00;;
20970;SDS011;10644;48.834;10.088;2023-04-15T02:37:08;5.30;;;3.80;;
20970;SDS011;10644;48.834;10.088;2023-04-15T02:39:35;4.18;;;3.55;;
20970;SDS011;10644;48.834;10.088;2023-04-15T02:42:00;5.90;;;3.73;;
20970;SDS011;10644;48.834;10.088;2023-04-15T02:44:26;6.10;;;3.80;;
20970;SDS011;10644;48.834;10.088;2023-04-15T02:46:52;9.80;;;4.40;;
20970;SDS011;10644;48.834;10.088;2023-04-15T02:49:22;7.15;;;4.00;;
20970;SDS011;10644;48.834;10.088;2023-04-15T02:51:47;6.22;;;4.43;;
20970;SDS011;10644;48.834;10.088;2023-04-15T02:54:17;7.53;;;3.70;;
20970;SDS011;10644;48.834;10.088;2023-04-15T02:56:43;8.80;;;4.70;;
20970;SDS011;10644;48.834;10.088;2023-04-15T02:59:11;8.13;;;5.57;;
20970;SDS011;10644;48.834;10.088;2023-04-15T03:01:36;18.05;;;5.95;;
20970;SDS011;10644;48.834;10.088;2023-04-15T03:04:02;8.23;;;5.30;;
20970;SDS011;10644;48.834;10.088;2023-04-15T03:06:27;10.10;;;5.90;;
20970;SDS011;10644;48.834;10.088;2023-04-15T03:08:53;11.23;;;6.27;;
20970;SDS011;10644;48.834;10.088;2023-04-15T03:11:18;9.80;;;6.60;;
20970;SDS011;10644;48.834;10.088;2023-04-15T03:13:44;12.93;;;5.77;;
20970;SDS011;10644;48.834;10.088;2023-04-15T03:16:11;12.02;;;6.90;;
20970;SDS011;10644;48.834;10.088;2023-04-15T03:18:37;10.93;;;6.03;;
20970;SDS011;10644;48.834;10.088;2023-04-15T03:21:02;7.83;;;5.40;;
20970;SDS011;10644;48.834;10.088;2023-04-15T03:23:30;15.35;;;7.05;;
20970;SDS011;10644;48.834;10.088;2023-04-15T03:25:56;12.00;;;7.13;;
20970;SDS011;10644;48.834;10.088;2023-04-15T03:28:22;23.98;;;7.65;;
20970;SDS011;10644;48.834;10.088;2023-04-15T03:30:48;7.97;;;6.57;;
20970;SDS011;10644;48.834;10.088;2023-04-15T03:33:13;8.73;;;5.90;;
20970;SDS011;10644;48.834;10.088;2023-04-15T03:35:38;9.83;;;7.70;;
20970;SDS011;10644;48.834;10.088;2023-04-15T03:38:04;13.33;;;7.53;;
20970;SDS011;10644;48.834;10.088;2023-04-15T03:40:29;11.83;;;6.20;;
20970;SDS011;10644;48.834;10.088;2023-04-15T03:42:55;14.23;;;5.87;;
20970;SDS011;10644;48.834;10.088;2023-04-15T03:45:20;5.43;;;4.40;;
20970;SDS011;10644;48.834;10.088;2023-04-15T03:47:48;5.10;;;3.67;;
20970;SDS011;10644;48.834;10.088;2023-04-15T03:50:14;12.53;;;4.00;;
20970;SDS011;10644;48.834;10.088;2023-04-15T03:52:39;8.50;;;4.00;;
20970;SDS011;10644;48.834;10.088;2023-04-15T03:55:05;9.90;;;4.10;;
20970;SDS011;10644;48.834;10.088;2023-04-15T03:57:30;7.27;;;4.10;;
20970;SDS011;10644;48.834;10.088;2023-04-15T03:59:56;6.63;;;4.57;;
20970;SDS011;10644;48.834;10.088;2023-04-15T04:02:21;4.73;;;3.73;;
20970;SDS011;10644;48.834;10.088;2023-04-15T04:04:47;13.73;;;4.57;;
20970;SDS011;10644;48.834;10.088;2023-04-15T04:07:15;8.30;;;4.30;;
20970;SDS011;10644;48.834;10.088;2023-04-15T04:09:41;15.40;;;9.93;;
20970;SDS011;10644;48.834;10.088;2023-04-15T04:12:07;10.37;;;6.23;;
20970;SDS011;10644;48.834;10.088;2023-04-15T04:14:32;8.77;;;5.80;;
20970;SDS011;10644;48.834;10.088;2023-04-15T04:16:58;10.30;;;5.40;;
20970;SDS011;10644;48.834;10.088;2023-04-15T04:19:23;10.45;;;5.47;;
20970;SDS011;10644;48.834;10.088;2023-04-15T04:21:51;7.90;;;5.40;;
20970;SDS011;10644;48.834;10.088;2023-04-15T04:24:16;17.17;;;5.70;;
20970;SDS011;10644;48.834;10.088;2023-04-15T04:26:42;12.60;;;6.30;;
20970;SDS011;10644;48.834;10.088;2023-04-15T04:29:07;15.40;;;6.63;;
20970;SDS011;10644;48.834;10.088;2023-04-15T04:31:33;8.40;;;5.10;;
20970;SDS011;10644;48.834;10.088;2023-04-15T04:33:58;15.03;;;4.50;;
20970;SDS011;10644;48.834;10.088;2023-04-15T04:36:24;23.77;;;5.50;;
20970;SDS011;10644;48.834;10.088;2023-04-15T04:38:50;15.75;;;4.93;;
20970;SDS011;10644;48.834;10.088;2023-04-15T04:41:16;12.70;;;4.40;;
20970;SDS011;10644;48.834;10.088;2023-04-15T04:43:42;13.07;;;4.88;;
20970;SDS011;10644;48.834;10.088;2023-04-15T04:46:07;10.20;;;4.47;;
20970;SDS011;10644;48.834;10.088;2023-04-15T04:48:33;21.77;;;6.17;;
20970;SDS011;10644;48.834;10.088;2023-04-15T04:50:58;12.00;;;4.83;;
20970;SDS011;10644;48.834;10.088;2023-04-15T04:53:23;15.63;;;5.07;;
20970;SDS011;10644;48.834;10.088;2023-04-15T04:55:49;16.57;;;5.60;;
20970;SDS011;10644;48.834;10.088;2023-04-15T04:58:17;14.03;;;5.63;;
20970;SDS011;10644;48.834;10.088;2023-04-15T05:00:42;14.25;;;5.80;;
20970;SDS011;10644;48.834;10.088;2023-04-15T05:03:08;13.03;;;5.80;;
20970;SDS011;10644;48.834;10.088;2023-04-15T05:05:34;11.70;;;5.77;;
20970;SDS011;10644;48.834;10.088;2023-04-15T05:08:00;14.30;;;4.72;;
20970;SDS011;10644;48.834;10.088;2023-04-15T05:10:26;11.20;;;5.60;;
20970;SDS011;10644;48.834;10.088;2023-04-15T05:12:51;12.00;;;5.37;;
20970;SDS011;10644;48.834;10.088;2023-04-15T05:15:17;16.17;;;5.97;;
20970;SDS011;10644;48.834;10.088;2023-04-15T05:17:42;16.17;;;5.23;;
20970;SDS011;10644;48.834;10.088;2023-04-15T05:20:08;15.98;;;5.75;;
20970;SDS011;10644;48.834;10.088;2023-04-15T05:22:34;11.70;;;5.17;;
20970;SDS011;10644;48.834;10.088;2023-04-15T05:24:59;17.27;;;5.43;;
20970;SDS011;10644;48.834;10.088;2023-04-15T05:27:25;25.73;;;6.90;;
20970;SDS011;10644;48.834;10.088;2023-04-15T05:29:50;10.20;;;5.27;;
20970;SDS011;10644;48.834;10.088;2023-04-15T05:32:15;15.50;;;5.40;;
20970;SDS011;10644;48.834;10.088;2023-04-15T05:34:41;24.30;;;7.33;;
20970;SDS011;10644;48.834;10.088;2023-04-15T05:37:06;11.03;;;6.00;;
20970;SDS011;10644;48.834;10.088;2023-04-15T05:39:37;13.05;;;5.60;;
20970;SDS011;10644;48.834;10.088;2023-04-15T05:42:02;30.10;;;6.80;;
20970;SDS011;10644;48.834;10.088;2023-04-15T05:44:27;23.77;;;6.13;;
20970;SDS011;10644;48.834;10.088;2023-04-15T05:46:53;18.47;;;6.60;;
20970;SDS011;10644;48.834;10.088;2023-04-15T05:49:18;18.90;;;6.67;;
20970;SDS011;10644;48.834;10.088;2023-04-15T05:51:43;21.33;;;7.20;;
20970;SDS011;10644;48.834;10.088;2023-04-15T05:54:09;20.43;;;7.20;;
20970;SDS011;10644;48.834;10.088;2023-04-15T05:56:37;25.73;;;7.93;;
20970;SDS011;10644;48.834;10.088;2023-04-15T05:59:02;21.90;;;7.20;;
20970;SDS011;10644;48.834;10.088;2023-04-15T06:01:30;16.38;;;6.72;;
20970;SDS011;10644;48.834;10.088;2023-04-15T06:03:57;19.27;;;7.50;;
20970;SDS011;10644;48.834;10.088;2023-04-15T06:06:25;29.65;;;8.35;;
20970;SDS011;10644;48.834;10.088;2023-04-15T06:08:51;21.80;;;7.73;;
20970;SDS011;10644;48.834;10.088;2023-04-15T06:11:20;16.38;;;7.55;;
20970;SDS011;10644;48.834;10.088;2023-04-15T06:13:46;18.92;;;7.28;;
20970;SDS011;10644;48.834;10.088;2023-04-15T06:16:11;16.90;;;7.23;;
20970;SDS011;10644;48.834;10.088;2023-04-15T06:18:37;14.83;;;6.47;;
20970;SDS011;10644;48.834;10.088;2023-04-15T06:21:03;26.63;;;7.70;;
20970;SDS011;10644;48.834;10.088;2023-04-15T06:23:28;17.17;;;6.70;;
20970;SDS011;10644;48.834;10.088;2023-04-15T06:25:54;14.43;;;7.27;;
20970;SDS011;10644;48.834;10.088;2023-04-15T06:28:19;17.83;;;6.90;;
20970;SDS011;10644;48.834;10.088;2023-04-15T06:30:45;22.40;;;7.70;;
20970;SDS011;10644;48.834;10.088;2023-04-15T06:33:10;22.47;;;8.10;;
20970;SDS011;10644;48.834;10.088;2023-04-15T06:35:35;14.93;;;7.00;;
20970;SDS011;10644;48.834;10.088;2023-04-15T06:38:00;15.83;;;7.20;;
20970;SDS011;10644;48.834;10.088;2023-04-15T06:40:26;16.30;;;7.80;;
20970;SDS011;10644;48.834;10.088;2023-04-15T06:42:52;17.23;;;7.43;;
20970;SDS011;10644;48.834;10.088;2023-04-15T06:45:19;20.83;;;7.35;;
20970;SDS011;10644;48.834;10.088;2023-04-15T06:47:45;21.53;;;7.97;;
20970;SDS011;10644;48.834;10.088;2023-04-15T06:50:10;16.73;;;7.40;;
20970;SDS011;10644;48.834;10.088;2023-04-15T06:52:36;17.77;;;7.07;;
20970;SDS011;10644;48.834;10.088;2023-04-15T06:55:01;26.23;;;8.70;;
20970;SDS011;10644;48.834;10.088;2023-04-15T06:57:27;19.47;;;8.20;;
20970;SDS011;10644;48.834;10.088;2023-04-15T06:59:53;24.93;;;8.57;;
20970;SDS011;10644;48.834;10.088;2023-04-15T07:02:21;23.15;;;7.40;;
20970;SDS011;10644;48.834;10.088;2023-04-15T07:04:46;20.37;;;8.43;;
20970;SDS011;10644;48.834;10.088;2023-04-15T07:07:12;17.20;;;7.90;;
20970;SDS011;10644;48.834;10.088;2023-04-15T07:09:39;21.90;;;8.02;;
20970;SDS011;10644;48.834;10.088;2023-04-15T07:12:04;18.87;;;7.20;;
20970;SDS011;10644;48.834;10.088;2023-04-15T07:14:30;17.73;;;7.30;;
20970;SDS011;10644;48.834;10.088;2023-04-15T07:16:55;17.40;;;7.80;;
20970;SDS011;10644;48.834;10.088;2023-04-15T07:19:21;24.00;;;8.90;;
20970;SDS011;10644;48.834;10.088;2023-04-15T07:21:48;24.13;;;8.20;;
20970;SDS011;10644;48.834;10.088;2023-04-15T07:24:13;30.08;;;9.45;;
20970;SDS011;10644;48.834;10.088;2023-04-15T07:26:42;19.40;;;7.60;;
20970;SDS011;10644;48.834;10.088;2023-04-15T07:29:08;22.70;;;7.78;;
20970;SDS011;10644;48.834;10.088;2023-04-15T07:31:34;16.97;;;7.43;;
20970;SDS011;10644;48.834;10.088;2023-04-15T07:34:00;15.00;;;7.18;;
20970;SDS011;10644;48.834;10.088;2023-04-15T07:36:26;19.83;;;7.97;;
20970;SDS011;10644;48.834;10.088;2023-04-15T07:38:53;12.02;;;7.25;;
20970;SDS011;10644;48.834;10.088;2023-04-15T07:41:19;18.03;;;7.27;;
20970;SDS011;10644;48.834;10.088;2023-04-15T07:43:45;39.20;;;16.70;;
20970;SDS011;10644;48.834;10.088;2023-04-15T07:46:11;60.50;;;27.03;;
20970;SDS011;10644;48.834;10.088;2023-04-15T07:48:36;16.53;;;7.23;;
20970;SDS011;10644;48.834;10.088;2023-04-15T07:51:02;22.57;;;10.87;;
20970;SDS011;10644;48.834;10.088;2023-04-15T07:53:27;14.50;;;6.90;;
20970;SDS011;10644;48.834;10.088;2023-04-15T07:55:53;16.60;;;6.57;;
20970;SDS011;10644;48.834;10.088;2023-04-15T07:58:18;15.93;;;6.63;;
20970;SDS011;10644;48.834;10.088;2023-04-15T08:00:45;16.70;;;6.65;;
20970;SDS011;10644;48.834;10.088;2023-04-15T08:03:11;15.90;;;6.63;;
20970;SDS011;10644;48.834;10.088;2023-04-15T08:05:36;21.43;;;7.20;;
20970;SDS011;10644;48.834;10.088;2023-04-15T08:08:04;17.02;;;7.50;;
20970;SDS011;10644;48.834;10.088;2023-04-15T08:10:29;17.37;;;6.17;;
20970;SDS011;10644;48.834;10.088;2023-04-15T08:12:54;17.83;;;7.20;;
20970;SDS011;10644;48.834;10.088;2023-04-15T08:15:20;13.73;;;6.03;;
20970;SDS011;10644;48.834;10.088;2023-04-15T08:17:46;11.97;;;5.50;;
20970;SDS011;10644;48.834;10.088;2023-04-15T08:20:11;9.33;;;5.83;;
20970;SDS011;10644;48.834;10.088;2023-04-15T08:22:37;9.80;;;5.20;;
20970;SDS011;10644;48.834;10.088;2023-04-15T08:25:03;11.60;;;5.80;;
20970;SDS011;10644;48.834;10.088;2023-04-15T08:27:28;16.20;;;6.70;;
20970;SDS011;10644;48.834;10.088;2023-04-15T08:29:54;10.83;;;5.43;;
20970;SDS011;10644;48.834;10.088;2023-04-15T08:32:19;23.37;;;5.83;;
20970;SDS011;10644;48.834;10.088;2023-04-15T08:34:45;14.83;;;6.77;;
20970;SDS011;10644;48.834;10.088;2023-04-15T08:37:10;11.07;;;5.90;;
20970;SDS011;10644;48.834;10.088;2023-04-15T08:39:36;10.27;;;5.00;;
20970;SDS011;10644;48.834;10.088;2023-04-15T08:42:02;11.90;;;5.50;;
20970;SDS011;10644;48.834;10.088;2023-04-15T08:44:31;10.70;;;4.90;;
20970;SDS011;10644;48.834;10.088;2023-04-15T08:47:01;10.07;;;5.20;;
20970;SDS011;10644;48.834;10.088;2023-04-15T08:49:27;7.97;;;4.60;;
20970;SDS011;10644;48.834;10.088;2023-04-15T08:51:52;18.27;;;6.10;;
20970;SDS011;10644;48.834;10.088;2023-04-15T08:54:21;18.70;;;6.07;;
20970;SDS011;10644;48.834;10.088;2023-04-15T08:56:47;11.63;;;5.27;;
20970;SDS011;10644;48.834;10.088;2023-04-15T08:59:13;12.20;;;5.50;;
20970;SDS011;10644;48.834;10.088;2023-04-15T09:01:40;15.27;;;5.37;;
20970;SDS011;10644;48.834;10.088;2023-04-15T09:04:08;12.33;;;4.80;;
20970;SDS011;10644;48.834;10.088;2023-04-15T09:06:36;9.83;;;4.90;;
20970;SDS011;10644;48.834;10.088;2023-04-15T09:09:03;17.57;;;6.30;;
20970;SDS011;10644;48.834;10.088;2023-04-15T09:11:29;20.80;;;6.33;;
20970;SDS011;10644;48.834;10.088;2023-04-15T09:13:55;18.27;;;5.87;;
20970;SDS011;10644;48.834;10.088;2023-04-15T09:16:20;10.07;;;4.50;;
20970;SDS011;10644;48.834;10.088;2023-04-15T09:18:46;9.47;;;4.70;;
20970;SDS011;10644;48.834;10.088;2023-04-15T09:21:12;17.27;;;5.37;;
20970;SDS011;10644;48.834;10.088;2023-04-15T09:23:57;11.77;;;4.70;;
20970;SDS011;10644;48.834;10.088;2023-04-15T09:26:34;7.40;;;4.33;;
20970;SDS011;10644;48.834;10.088;2023-04-15T09:29:04;9.20;;;4.67;;
20970;SDS011;10644;48.834;10.088;2023-04-15T09:31:31;19.60;;;5.77;;
20970;SDS011;10644;48.834;10.088;2023-04-15T09:33:57;21.10;;;5.87;;
20970;SDS011;10644;48.834;10.088;2023-04-15T09:36:22;11.50;;;5.83;;
20970;SDS011;10644;48.834;10.088;2023-04-15T09:38:55;14.70;;;6.07;;
20970;SDS011;10644;48.834;10.088;2023-04-15T09:41:22;7.17;;;4.97;;
20970;SDS011;10644;48.834;10.088;2023-04-15T09:43:48;10.60;;;5.10;;
20970;SDS011;10644;48.834;10.088;2023-04-15T09:46:13;13.63;;;5.63;;
20970;SDS011;10644;48.834;10.088;2023-04-15T09:48:39;11.83;;;5.00;;
20970;SDS011;10644;48.834;10.088;2023-04-15T09:51:04;11.67;;;5.43;;
20970;SDS011;10644;48.834;10.088;2023-04-15T09:53:33;24.37;;;6.33;;
20970;SDS011;10644;48.834;10.088;2023-04-15T09:56:00;9.43;;;5.40;;
20970;SDS011;10644;48.834;10.088;2023-04-15T09:58:28;13.27;;;6.27;;
20970;SDS011;10644;48.834;10.088;2023-04-15T10:00:57;8.40;;;4.90;;
20970;SDS011;10644;48.834;10.088;2023-04-15T10:03:25;11.07;;;5.37;;
20970;SDS011;10644;48.834;10.088;2023-04-15T10:05:56;7.63;;;4.70;;
20970;SDS011;10644;48.834;10.088;2023-04-15T10:08:23;19.83;;;8.10;;
20970;SDS011;10644;48.834;10.088;2023-04-15T10:10:51;9.67;;;4.87;;
20970;SDS011;10644;48.834;10.088;2023-04-15T10:13:22;7.87;;;5.17;;
20970;SDS011;10644;48.834;10.088;2023-04-15T10:15:57;7.67;;;4.57;;
20970;SDS011;10644;48.834;10.088;2023-04-15T10:18:25;15.87;;;6.50;;
20970;SDS011;10644;48.834;10.088;2023-04-15T10:20:52;22.33;;;7.00;;
20970;SDS011;10644;48.834;10.088;2023-04-15T10:23:19;12.80;;;6.30;;
20970;SDS011;10644;48.834;10.088;2023-04-15T10:25:45;11.50;;;6.47;;
20970;SDS011;10644;48.834;10.088;2023-04-15T10:28:11;11.40;;;6.53;;
20970;SDS011;10644;48.834;10.088;2023-04-15T10:30:38;15.27;;;6.20;;
20970;SDS011;10644;48.834;10.088;2023-04-15T10:33:04;15.17;;;7.10;;
20970;SDS011;10644;48.834;10.088;2023-04-15T10:35:30;15.83;;;7.63;;
20970;SDS011;10644;48.834;10.088;2023-04-15T10:37:57;10.97;;;6.53;;
20970;SDS011;10644;48.834;10.088;2023-04-15T10:40:27;26.20;;;9.20;;
20970;SDS011;10644;48.834;10.088;2023-04-15T10:42:57;15.10;;;6.17;;
20970;SDS011;10644;48.834;10.088;2023-04-15T10:45:31;13.80;;;6.03;;
20970;SDS011;10644;48.834;10.088;2023-04-15T10:48:00;11.03;;;5.47;;
20970;SDS011;10644;48.834;10.088;2023-04-15T10:50:26;12.13;;;7.60;;
20970;SDS011;10644;48.834;10.088;2023-04-15T10:52:58;29.67;;;9.23;;
20970;SDS011;10644;48.834;10.088;2023-04-15T10:55:30;13.60;;;6.90;;
20970;SDS011;10644;48.834;10.088;2023-04-15T10:57:57;13.37;;;6.00;;
20970;SDS011;10644;48.834;10.088;2023-04-15T11:00:26;16.90;;;7.27;;
20970;SDS011;10644;48.834;10.088;2023-04-15T11:02:57;14.17;;;6.47;;
20970;SDS011;10644;48.834;10.088;2023-04-15T11:08:03;11.33;;;6.83;;
20970;SDS011;10644;48.834;10.088;2023-04-15T11:12:59;10.63;;;5.30;;
20970;SDS011;10644;48.834;10.088;2023-04-15T11:15:30;12.90;;;5.93;;
20970;SDS011;10644;48.834;10.088;2023-04-15T11:17:58;11.13;;;5.77;;
20970;SDS011;10644;48.834;10.088;2023-04-15T11:20:37;27.90;;;7.57;;
20970;SDS011;10644;48.834;10.088;2023-04-15T11:23:03;10.13;;;6.03;;
20970;SDS011;10644;48.834;10.088;2023-04-15T11:25:32;11.07;;;5.17;;
20970;SDS011;10644;48.834;10.088;2023-04-15T11:27:59;15.40;;;5.77;;
20970;SDS011;10644;48.834;10.088;2023-04-15T11:30:30;9.30;;;4.70;;
20970;SDS011;10644;48.834;10.088;2023-04-15T11:33:00;12.23;;;5.67;;
20970;SDS011;10644;48.834;10.088;2023-04-15T11:35:27;10.80;;;6.07;;
20970;SDS011;10644;48.834;10.088;2023-04-15T11:37:53;16.23;;;6.63;;
20970;SDS011;10644;48.834;10.088;2023-04-15T11:40:26;10.30;;;6.33;;
20970;SDS011;10644;48.834;10.088;2023-04-15T11:43:09;9.40;;;5.87;;
20970;SDS011;10644;48.834;10.088;2023-04-15T11:45:56;13.00;;;6.23;;
20970;SDS011;10644;48.834;10.088;2023-04-15T11:48:25;10.43;;;5.63;;
20970;SDS011;10644;48.834;10.088;2023-04-15T11:50:56;8.53;;;5.33;;
20970;SDS011;10644;48.834;10.088;2023-04-15T11:53:35;15.70;;;6.90;;
20970;SDS011;10644;48.834;10.088;2023-04-15T11:56:02;13.90;;;6.50;;
20970;SDS011;10644;48.834;10.088;2023-04-15T11:58:30;19.63;;;5.90;;
20970;SDS011;10644;48.834;10.088;2023-04-15T12:03:23;12.83;;;6.30;;
20970;SDS011;10644;48.834;10.088;2023-04-15T12:08:51;19.70;;;6.93;;
20970;SDS011;10644;48.834;10.088;2023-04-15T12:11:49;8.33;;;3.40;;
20970;SDS011;10644;48.834;10.088;2023-04-15T12:16:56;9.13;;;3.43;;
20970;SDS011;10644;48.834;10.088;2023-04-15T12:24:53;5.80;;;2.90;;
20970;SDS011;10644;48.834;10.088;2023-04-15T12:27:24;7.60;;;3.43;;
20970;SDS011;10644;48.834;10.088;2023-04-15T12:29:58;6.50;;;2.37;;
20970;SDS011;10644;48.834;10.088;2023-04-15T12:32:34;12.03;;;3.00;;
20970;SDS011;10644;48.834;10.088;2023-04-15T12:34:59;10.67;;;3.40;;
20970;SDS011;10644;48.834;10.088;2023-04-15T12:37:25;9.80;;;3.53;;
20970;SDS011;10644;48.834;10.088;2023-04-15T12:39:51;7.97;;;3.23;;
20970;SDS011;10644;48.834;10.088;2023-04-15T12:42:18;6.63;;;3.03;;
20970;SDS011;10644;48.834;10.088;2023-04-15T12:44:44;8.73;;;3.50;;
20970;SDS011;10644;48.834;10.088;2023-04-15T12:47:09;7.77;;;3.70;;
20970;SDS011;10644;48.834;10.088;2023-04-15T12:49:36;7.70;;;3.63;;
20970;SDS011;10644;48.834;10.088;2023-04-15T12:52:02;13.20;;;3.90;;
20970;SDS011;10644;48.834;10.088;2023-04-15T12:54:28;11.53;;;3.60;;
20970;SDS011;10644;48.834;10.088;2023-04-15T12:56:54;17.90;;;3.73;;
20970;SDS011;10644;48.834;10.088;2023-04-15T12:59:20;13.83;;;3.50;;
20970;SDS011;10644;48.834;10.088;2023-04-15T13:01:47;12.53;;;4.30;;
20970;SDS011;10644;48.834;10.088;2023-04-15T13:04:14;14.93;;;3.50;;
20970;SDS011;10644;48.834;10.088;2023-04-15T13:06:40;12.53;;;3.80;;
20970;SDS011;10644;48.834;10.088;2023-04-15T13:09:05;9.83;;;3.20;;
20970;SDS011;10644;48.834;10.088;2023-04-15T13:11:31;15.10;;;3.03;;
20970;SDS011;10644;48.834;10.088;2023-04-15T13:14:01;12.20;;;3.30;;
20970;SDS011;10644;48.834;10.088;2023-04-15T13:16:27;13.50;;;3.07;;
20970;SDS011;10644;48.834;10.088;2023-04-15T13:18:55;9.77;;;2.70;;
20970;SDS011;10644;48.834;10.088;2023-04-15T13:21:20;11.83;;;2.77;;
20970;SDS011;10644;48.834;10.088;2023-04-15T13:23:46;11.37;;;3.23;;
20970;SDS011;10644;48.834;10.088;2023-04-15T13:26:13;7.37;;;2.27;;
20970;SDS011;10644;48.834;10.088;2023-04-15T13:28:38;10.43;;;2.70;;
20970;SDS011;10644;48.834;10.088;2023-04-15T13:31:04;9.63;;;2.80;;
20970;SDS011;10644;48.834;10.088;2023-04-15T13:33:29;11.10;;;3.30;;
20970;SDS011;10644;48.834;10.088;2023-04-15T13:35:55;7.63;;;2.43;;
20970;SDS011;10644;48.834;10.088;2023-04-15T13:38:21;10.33;;;3.37;;
20970;SDS011;10644;48.834;10.088;2023-04-15T13:40:48;11.27;;;2.87;;
20970;SDS011;10644;48.834;10.088;2023-04-15T13:43:14;5.53;;;1.80;;
20970;SDS011;10644;48.834;10.088;2023-04-15T13:45:39;13.50;;;2.60;;
20970;SDS011;10644;48.834;10.088;2023-04-15T13:48:05;3.53;;;1.67;;
20970;SDS011;10644;48.834;10.088;2023-04-15T13:50:30;5.07;;;1.47;;
20970;SDS011;10644;48.834;10.088;2023-04-15T13:52:56;4.13;;;1.60;;
20970;SDS011;10644;48.834;10.088;2023-04-15T13:55:21;3.57;;;2.47;;
20970;SDS011;10644;48.834;10.088;2023-04-15T13:57:46;2.60;;;1.80;;
20970;SDS011;10644;48.834;10.088;2023-04-15T14:00:12;5.83;;;2.03;;
20970;SDS011;10644;48.834;10.088;2023-04-15T14:02:38;7.70;;;2.17;;
20970;SDS011;10644;48.834;10.088;2023-04-15T14:05:05;9.00;;;2.50;;
20970;SDS011;10644;48.834;10.088;2023-04-15T14:07:31;6.70;;;2.30;;
20970;SDS011;10644;48.834;10.088;2023-04-15T14:09:56;4.13;;;2.07;;
20970;SDS011;10644;48.834;10.088;2023-04-15T14:12:22;3.33;;;1.83;;
20970;SDS011;10644;48.834;10.088;2023-04-15T14:14:47;6.20;;;2.53;;
20970;SDS011;10644;48.834;10.088;2023-04-15T14:17:12;3.93;;;1.93;;
20970;SDS011;10644;48.834;10.088;2023-04-15T14:19:38;12.27;;;2.70;;
20970;SDS011;10644;48.834;10.088;2023-04-15T14:22:03;7.17;;;2.00;;
20970;SDS011;10644;48.834;10.088;2023-04-15T14:24:29;5.17;;;1.97;;
20970;SDS011;10644;48.834;10.088;2023-04-15T14:26:54;4.50;;;1.60;;
20970;SDS011;10644;48.834;10.088;2023-04-15T14:29:21;7.63;;;2.13;;
20970;SDS011;10644;48.834;10.088;2023-04-15T14:31:46;9.40;;;2.63;;
20970;SDS011;10644;48.834;10.088;2023-04-15T14:34:13;7.53;;;2.53;;
20970;SDS011;10644;48.834;10.088;2023-04-15T14:36:41;2.80;;;1.80;;
20970;SDS011;10644;48.834;10.088;2023-04-15T14:39:07;4.97;;;2.10;;
20970;SDS011;10644;48.834;10.088;2023-04-15T14:41:33;14.40;;;3.30;;
20970;SDS011;10644;48.834;10.088;2023-04-15T14:43:59;4.07;;;2.10;;